Time;durP1;ratioP1;P1;durP2;ratioP2;P2;SDS_P1;SDS_P2;PMS_P1;PMS_P2;Temp;Humidity;BMP_temperature;BMP_pressure;BME280_temperature;BME280_humidity;BME280_pressure;Samples;Min_cycle;Max_cycle;Signal;HPM_P1;HPM_P2
2022/04/03 00:01:46;;;;;;;11.03;6.27;;;-0.10;99.90;;;;;;5028859;28;20206;-50
2022/04/03 00:04:11;;;;;;;20.30;9.53;;;0.00;99.90;;;;;;5029830;28;20589;-52
2022/04/03 00:06:37;;;;;;;22.87;9.87;;;0.00;99.90;;;;;;5025322;28;20183;-50
2022/04/03 00:09:02;;;;;;;28.23;12.27;;;0.00;99.90;;;;;;5029089;28;20207;-50
2022/04/03 00:11:29;;;;;;;12.70;6.77;;;0.10;99.90;;;;;;5028931;28;20191;-50
2022/04/03 00:13:55;;;;;;;12.70;6.80;;;0.10;99.90;;;;;;5023262;28;20179;-50
2022/04/03 00:16:21;;;;;;;8.20;5.37;;;0.20;99.90;;;;;;5028567;28;20930;-50
2022/04/03 00:18:46;;;;;;;11.17;5.87;;;0.20;99.90;;;;;;5028578;28;20437;-50
2022/04/03 00:21:13;;;;;;;7.30;5.10;;;0.20;99.90;;;;;;5028869;28;20287;-51
2022/04/03 00:23:39;;;;;;;9.63;6.00;;;0.20;99.90;;;;;;5029134;28;20187;-57
2022/04/03 00:26:05;;;;;;;9.13;5.27;;;0.20;99.90;;;;;;5028714;28;20441;-50
2022/04/03 00:28:30;;;;;;;6.33;4.90;;;0.20;99.90;;;;;;5029250;28;20538;-50
2022/04/03 00:30:56;;;;;;;8.60;5.53;;;0.30;99.90;;;;;;5029437;28;20266;-50
2022/04/03 00:33:22;;;;;;;12.97;6.43;;;0.30;99.90;;;;;;5028879;28;20174;-52
2022/04/03 00:35:50;;;;;;;12.57;6.20;;;0.30;99.90;;;;;;5029179;28;20425;-51
2022/04/03 00:38:16;;;;;;;10.30;5.80;;;0.40;99.90;;;;;;5021332;28;20187;-52
2022/04/03 00:40:47;;;;;;;13.10;7.10;;;0.40;99.90;;;;;;5028983;28;20425;-50
2022/04/03 00:43:13;;;;;;;11.80;6.80;;;0.50;99.90;;;;;;5029022;28;20775;-50
2022/04/03 00:45:44;;;;;;;16.57;7.47;;;0.50;99.90;;;;;;5028540;28;20453;-50
2022/04/03 00:48:10;;;;;;;11.93;6.90;;;0.50;99.90;;;;;;5027420;28;20798;-51
2022/04/03 00:50:37;;;;;;;11.67;6.10;;;0.60;99.90;;;;;;5028610;28;20433;-50
2022/04/03 00:53:03;;;;;;;11.30;6.73;;;0.60;99.90;;;;;;5027506;28;20656;-50
2022/04/03 00:55:29;;;;;;;9.80;6.37;;;0.60;99.90;;;;;;5028944;28;20437;-51
2022/04/03 00:57:55;;;;;;;9.67;6.30;;;0.70;99.90;;;;;;5023832;28;20452;-51
2022/04/03 01:00:21;;;;;;;9.13;6.23;;;0.60;99.90;;;;;;5031285;28;20214;-51
2022/04/03 01:02:46;;;;;;;14.73;6.70;;;0.70;99.90;;;;;;5032533;28;20548;-51
2022/04/03 01:05:12;;;;;;;12.70;7.27;;;0.60;99.90;;;;;;5015325;28;20437;-51
2022/04/03 01:07:37;;;;;;;18.33;7.90;;;0.60;99.90;;;;;;5033396;28;20561;-50
2022/04/03 01:10:04;;;;;;;15.93;8.47;;;0.60;99.90;;;;;;5033815;28;20184;-50
2022/04/03 01:12:29;;;;;;;16.67;7.57;;;0.60;99.90;;;;;;5033677;28;20187;-51
2022/04/03 01:14:55;;;;;;;15.23;7.47;;;0.50;99.90;;;;;;5033703;28;20435;-51
2022/04/03 01:17:20;;;;;;;19.60;7.67;;;0.50;99.90;;;;;;5034369;28;20176;-50
2022/04/03 01:19:46;;;;;;;16.93;7.47;;;0.50;99.90;;;;;;5038118;28;20201;-50
2022/04/03 01:22:12;;;;;;;15.00;8.83;;;0.50;99.90;;;;;;5037315;28;20270;-51
2022/04/03 01:24:43;;;;;;;15.40;8.23;;;0.50;99.90;;;;;;5033384;28;20206;-51
2022/04/03 01:27:08;;;;;;;14.97;8.30;;;0.50;99.90;;;;;;5029608;28;20213;-51
2022/04/03 01:29:34;;;;;;;16.77;8.60;;;0.50;99.90;;;;;;5033690;28;20840;-51
2022/04/03 01:32:00;;;;;;;23.50;9.10;;;0.50;99.90;;;;;;5025607;28;20195;-50
2022/04/03 01:34:25;;;;;;;16.40;9.23;;;0.60;99.90;;;;;;5027589;28;20285;-51
2022/04/03 01:36:51;;;;;;;21.80;9.67;;;0.50;99.90;;;;;;5031346;28;20183;-51
2022/04/03 01:39:16;;;;;;;17.93;10.40;;;0.60;99.90;;;;;;5032753;28;20245;-56
2022/04/03 01:41:43;;;;;;;19.37;9.80;;;0.60;99.90;;;;;;5033585;28;20898;-47
2022/04/03 01:44:10;;;;;;;22.70;9.37;;;0.60;99.90;;;;;;5014677;28;20333;-47
2022/04/03 01:46:37;;;;;;;17.97;9.00;;;0.60;99.90;;;;;;5032883;28;20429;-47
2022/04/03 01:49:04;;;;;;;12.93;8.60;;;0.60;99.90;;;;;;5032684;28;20473;-47
2022/04/03 01:51:30;;;;;;;21.80;9.70;;;0.60;99.90;;;;;;5032619;28;20440;-48
2022/04/03 01:53:56;;;;;;;14.33;8.90;;;0.50;99.90;;;;;;5032851;28;20892;-47
2022/04/03 01:56:21;;;;;;;15.40;9.33;;;0.40;99.90;;;;;;5015005;28;20187;-47
2022/04/03 01:58:47;;;;;;;16.00;9.03;;;0.40;99.90;;;;;;5015297;28;20190;-47
2022/04/03 02:01:12;;;;;;;18.23;10.07;;;0.30;99.90;;;;;;5033031;28;20246;-47
2022/04/03 02:03:38;;;;;;;18.30;9.83;;;0.30;99.90;;;;;;5031477;28;20241;-47
2022/04/03 02:06:03;;;;;;;23.73;9.70;;;0.30;99.90;;;;;;5031174;28;20266;-47
2022/04/03 02:08:29;;;;;;;16.20;9.83;;;0.30;99.90;;;;;;5031059;28;20867;-47
2022/04/03 02:10:54;;;;;;;16.07;9.70;;;0.20;99.90;;;;;;5031539;28;20597;-48
2022/04/03 02:13:20;;;;;;;11.90;8.30;;;0.20;99.90;;;;;;5031000;28;20191;-47
2022/04/03 02:15:45;;;;;;;19.50;8.63;;;0.20;99.90;;;;;;5031393;28;20176;-47
2022/04/03 02:18:12;;;;;;;14.13;8.83;;;0.10;99.90;;;;;;5013058;28;20279;-47
2022/04/03 02:20:38;;;;;;;13.53;8.80;;;0.00;99.90;;;;;;5023859;28;20187;-47
2022/04/03 02:23:04;;;;;;;14.27;8.20;;;0.10;1.00;;;;;;5031278;28;20440;-47
2022/04/03 02:25:32;;;;;;;14.03;7.57;;;0.00;1.00;;;;;;5031164;28;20222;-47
2022/04/03 02:28:01;;;;;;;13.50;8.03;;;0.00;1.00;;;;;;5031205;28;20469;-47
2022/04/03 02:30:27;;;;;;;12.23;8.33;;;0.00;1.00;;;;;;5029927;28;20426;-52
2022/04/03 02:32:52;;;;;;;11.10;7.30;;;0.00;1.00;;;;;;5030719;28;20477;-47
2022/04/03 02:35:18;;;;;;;11.77;7.40;;;-0.10;1.00;;;;;;5030764;28;20549;-47
2022/04/03 02:37:44;;;;;;;12.90;7.83;;;-0.10;1.00;;;;;;5030855;28;20179;-47
2022/04/03 02:40:13;;;;;;;13.67;7.87;;;-0.10;1.00;;;;;;5030257;28;20270;-47
2022/04/03 02:42:39;;;;;;;14.03;7.90;;;-0.10;1.00;;;;;;5030542;28;20187;-48
2022/04/03 02:45:06;;;;;;;11.93;7.83;;;-0.20;1.00;;;;;;5030345;28;20433;-47
2022/04/03 02:47:33;;;;;;;12.93;7.40;;;-0.20;1.00;;;;;;5028147;28;20830;-47
2022/04/03 02:49:59;;;;;;;14.10;7.07;;;-0.20;1.00;;;;;;5030746;28;20434;-47
2022/04/03 02:52:25;;;;;;;12.30;6.30;;;-0.20;1.00;;;;;;5030150;28;20414;-47
2022/04/03 02:54:50;;;;;;;11.73;7.37;;;-0.20;1.00;;;;;;5030190;28;20988;-48
2022/04/03 02:57:16;;;;;;;14.83;7.40;;;-0.20;1.00;;;;;;5031535;28;20636;-49
2022/04/03 02:59:44;;;;;;;13.03;6.90;;;-0.20;1.00;;;;;;5029825;28;20238;-47
2022/04/03 03:02:10;;;;;;;18.20;9.20;;;-0.20;1.00;;;;;;5030473;28;20430;-47
2022/04/03 03:04:36;;;;;;;13.10;7.17;;;-0.20;1.00;;;;;;5030281;28;20993;-47
2022/04/03 03:07:06;;;;;;;12.97;8.07;;;-0.20;1.00;;;;;;5030637;28;20422;-47
2022/04/03 03:09:32;;;;;;;15.87;7.53;;;-0.20;1.00;;;;;;5030124;28;20468;-47
2022/04/03 03:12:00;;;;;;;14.43;7.07;;;-0.20;1.00;;;;;;5029638;28;20423;-47
2022/04/03 03:14:29;;;;;;;11.80;7.63;;;-0.20;1.00;;;;;;5025015;28;20442;-48
2022/04/03 03:16:55;;;;;;;10.20;7.13;;;-0.10;1.00;;;;;;5029133;28;20472;-50
2022/04/03 03:19:21;;;;;;;16.60;7.90;;;-0.10;1.00;;;;;;5029264;28;20418;-51
2022/04/03 03:21:47;;;;;;;16.07;8.00;;;-0.20;1.00;;;;;;5029579;28;20914;-52
2022/04/03 03:24:12;;;;;;;12.47;7.30;;;-0.20;1.00;;;;;;5029805;28;20539;-51
2022/04/03 03:26:39;;;;;;;19.60;7.93;;;-0.30;1.00;;;;;;5029685;28;20194;-47
2022/04/03 03:29:04;;;;;;;18.80;7.80;;;-0.30;1.00;;;;;;5030129;28;20261;-48
2022/04/03 03:31:31;;;;;;;10.80;7.43;;;-0.30;1.00;;;;;;5029559;28;20422;-48
2022/04/03 03:33:56;;;;;;;15.53;8.10;;;-0.30;1.00;;;;;;5028660;28;20241;-48
2022/04/03 03:36:22;;;;;;;19.90;7.70;;;-0.30;1.00;;;;;;5030026;28;20422;-47
2022/04/03 03:38:47;;;;;;;12.90;8.10;;;-0.30;1.00;;;;;;5012343;28;20187;-48
2022/04/03 03:41:16;;;;;;;11.90;7.43;;;-0.20;1.00;;;;;;5029416;28;20195;-48
2022/04/03 03:43:43;;;;;;;19.70;7.27;;;-0.20;1.00;;;;;;5029690;28;20183;-48
2022/04/03 03:46:08;;;;;;;14.47;7.80;;;-0.20;1.00;;;;;;5029144;28;20457;-49
2022/04/03 03:48:35;;;;;;;10.17;7.20;;;-0.20;1.00;;;;;;5026495;28;20570;-48
2022/04/03 03:51:00;;;;;;;16.53;7.97;;;-0.20;1.00;;;;;;5026486;28;20555;-52
2022/04/03 03:53:26;;;;;;;14.03;7.20;;;-0.10;1.00;;;;;;5029228;28;20426;-47
2022/04/03 03:55:52;;;;;;;10.03;7.50;;;-0.20;1.00;;;;;;5029172;28;20225;-52
2022/04/03 03:58:17;;;;;;;15.27;7.57;;;-0.20;1.00;;;;;;5029195;28;20186;-48
2022/04/03 04:00:43;;;;;;;10.87;7.17;;;-0.30;1.00;;;;;;5029293;28;20237;-48
2022/04/03 04:03:08;;;;;;;16.67;8.10;;;-0.40;1.00;;;;;;5028957;28;20539;-48
2022/04/03 04:05:35;;;;;;;16.97;8.13;;;-0.40;1.00;;;;;;5029005;28;20207;-48
2022/04/03 04:08:00;;;;;;;12.70;7.87;;;-0.40;1.00;;;;;;5025893;28;20226;-48
2022/04/03 04:10:26;;;;;;;12.00;7.63;;;-0.50;1.00;;;;;;5029504;28;20792;-48
2022/04/03 04:12:52;;;;;;;12.50;8.97;;;-0.50;1.00;;;;;;5029468;28;20258;-48
2022/04/03 04:15:17;;;;;;;15.30;7.80;;;-0.50;2.80;;;;;;5029486;28;20186;-47
2022/04/03 04:17:45;;;;;;;14.37;8.70;;;-0.50;10.40;;;;;;5029211;28;20182;-48
2022/04/03 04:20:16;;;;;;;13.20;7.83;;;-0.50;12.90;;;;;;5028427;28;20190;-48
2022/04/03 04:22:44;;;;;;;14.10;8.27;;;-0.50;56.40;;;;;;5022720;28;20420;-48
2022/04/03 04:25:14;;;;;;;22.57;8.20;;;-0.50;70.00;;;;;;5028948;28;20512;-48
2022/04/03 04:27:40;;;;;;;13.83;8.10;;;-0.60;32.50;;;;;;5028845;28;20450;-48
2022/04/03 04:30:07;;;;;;;12.07;7.83;;;-0.60;57.30;;;;;;5028866;28;20441;-48
2022/04/03 04:32:33;;;;;;;12.17;7.40;;;-0.50;49.60;;;;;;5030337;28;20433;-47
2022/04/03 04:34:59;;;;;;;13.10;7.20;;;-0.50;44.90;;;;;;5032844;28;20972;-47
2022/04/03 04:37:25;;;;;;;18.10;7.27;;;-0.40;3.30;;;;;;5031142;28;20272;-48
2022/04/03 04:39:50;;;;;;;19.03;8.00;;;-0.40;4.20;;;;;;5033012;28;20473;-57
2022/04/03 04:42:16;;;;;;;16.17;7.73;;;-0.40;1.00;;;;;;5032886;28;20430;-47
2022/04/03 04:44:42;;;;;;;11.70;6.90;;;-0.50;1.00;;;;;;5033599;28;20713;-48
2022/04/03 04:47:08;;;;;;;14.07;7.53;;;-0.50;1.00;;;;;;5014548;28;20445;-48
2022/04/03 04:49:34;;;;;;;12.07;7.37;;;-0.60;13.80;;;;;;5032664;28;20344;-47
2022/04/03 04:52:00;;;;;;;9.90;6.60;;;-0.60;13.90;;;;;;5032912;28;20441;-48
2022/04/03 04:54:26;;;;;;;12.77;6.97;;;-0.60;41.10;;;;;;5033186;28;20198;-47
2022/04/03 04:56:53;;;;;;;12.30;7.40;;;-0.60;48.60;;;;;;5031470;28;20199;-48
2022/04/03 04:59:19;;;;;;;11.50;6.83;;;-0.60;92.20;;;;;;5032841;28;21008;-47
2022/04/03 05:01:45;;;;;;;11.33;6.60;;;-0.50;96.70;;;;;;5032946;28;20437;-48
2022/04/03 05:04:10;;;;;;;15.20;7.70;;;-0.40;42.70;;;;;;5024444;28;20462;-47
2022/04/03 05:06:37;;;;;;;15.17;7.13;;;-0.40;2.20;;;;;;5031508;28;20191;-48
2022/04/03 05:09:04;;;;;;;11.67;6.90;;;-0.50;1.00;;;;;;5034813;28;20215;-48
2022/04/03 05:11:30;;;;;;;13.80;7.27;;;-0.50;14.40;;;;;;5016594;28;20433;-48
2022/04/03 05:13:56;;;;;;;12.20;7.87;;;-0.50;21.50;;;;;;5034776;28;21003;-51
2022/04/03 05:16:21;;;;;;;15.60;7.43;;;-0.40;33.00;;;;;;5038320;28;20452;-48
2022/04/03 05:18:47;;;;;;;11.83;7.80;;;-0.40;23.90;;;;;;5035821;28;20641;-48
2022/04/03 05:21:13;;;;;;;13.00;7.03;;;-0.40;3.40;;;;;;5033795;28;20201;-48
2022/04/03 05:23:39;;;;;;;14.20;8.00;;;-0.40;20.70;;;;;;5034336;28;20757;-48
2022/04/03 05:26:05;;;;;;;23.27;7.50;;;-0.40;11.20;;;;;;5033851;28;20445;-48
2022/04/03 05:28:31;;;;;;;15.90;6.53;;;-0.30;2.20;;;;;;5034252;28;20245;-52
2022/04/03 05:30:56;;;;;;;13.90;6.73;;;-0.20;1.00;;;;;;5033757;28;20179;-47
2022/04/03 05:33:22;;;;;;;14.27;7.20;;;-0.10;1.00;;;;;;5033698;28;20504;-47
2022/04/03 05:35:48;;;;;;;12.90;6.67;;;-0.20;1.00;;;;;;5034164;28;20187;-48
2022/04/03 05:38:14;;;;;;;13.20;8.23;;;-0.20;1.00;;;;;;5033837;28;20425;-48
2022/04/03 05:40:40;;;;;;;12.13;7.93;;;-0.10;1.00;;;;;;5034096;28;21001;-57
2022/04/03 05:43:05;;;;;;;11.00;7.30;;;-0.10;1.00;;;;;;5034231;28;20195;-48
2022/04/03 05:45:31;;;;;;;14.20;7.80;;;0.00;1.00;;;;;;5034835;28;20188;-47
2022/04/03 05:47:57;;;;;;;12.00;7.97;;;0.10;1.00;;;;;;5033678;28;20986;-47
2022/04/03 05:50:23;;;;;;;12.17;7.57;;;0.20;1.00;;;;;;5033664;28;20249;-48
2022/04/03 05:52:51;;;;;;;10.67;7.20;;;0.40;1.00;;;;;;5033571;28;20625;-48
2022/04/03 05:55:20;;;;;;;10.90;6.23;;;0.50;1.00;;;;;;5032008;28;20426;-48
2022/04/03 05:57:50;;;;;;;9.67;6.50;;;0.70;1.00;;;;;;5028342;28;20445;-47
2022/04/03 06:00:17;;;;;;;11.47;6.67;;;0.80;1.00;;;;;;5033613;28;20951;-47
2022/04/03 06:02:48;;;;;;;9.63;7.17;;;0.80;1.00;;;;;;5032989;28;20481;-48
2022/04/03 06:05:14;;;;;;;11.90;7.30;;;1.00;1.00;;;;;;5031956;28;20456;-51
2022/04/03 06:07:40;;;;;;;12.93;6.43;;;1.10;1.00;;;;;;5032461;28;20772;-51
2022/04/03 06:10:06;;;;;;;10.50;6.83;;;1.20;1.00;;;;;;5032577;28;20465;-51
2022/04/03 06:12:31;;;;;;;9.50;6.43;;;1.30;1.00;;;;;;5032240;28;20171;-51
2022/04/03 06:14:57;;;;;;;11.90;6.50;;;1.30;1.00;;;;;;5032124;28;20783;-51
2022/04/03 06:17:23;;;;;;;11.07;5.73;;;1.40;1.00;;;;;;5031605;28;20195;-52
2022/04/03 06:19:49;;;;;;;11.70;6.80;;;1.50;1.00;;;;;;5031982;28;20554;-49
2022/04/03 06:22:15;;;;;;;10.40;5.93;;;1.60;1.00;;;;;;5032335;28;20437;-47
2022/04/03 06:24:40;;;;;;;10.07;6.20;;;1.70;99.90;;;;;;5014794;28;20442;-49
2022/04/03 06:27:06;;;;;;;10.00;6.63;;;1.70;99.90;;;;;;5031219;28;20190;-47
2022/04/03 06:29:31;;;;;;;16.77;6.40;;;1.80;99.90;;;;;;5014275;28;20215;-49
2022/04/03 06:31:57;;;;;;;7.60;6.07;;;2.00;99.90;;;;;;5031519;28;20195;-47
2022/04/03 06:34:23;;;;;;;8.60;5.37;;;2.00;99.90;;;;;;5031954;28;20226;-47
2022/04/03 06:36:49;;;;;;;10.00;6.37;;;2.00;99.90;;;;;;5031458;28;20572;-48
2022/04/03 06:39:14;;;;;;;9.30;6.00;;;2.00;99.90;;;;;;5030898;28;20950;-48
2022/04/03 06:41:40;;;;;;;12.10;6.20;;;2.10;99.90;;;;;;5037786;28;20176;-48
2022/04/03 06:44:06;;;;;;;8.60;5.97;;;2.10;99.90;;;;;;5030959;28;20198;-48
2022/04/03 06:46:32;;;;;;;9.03;5.60;;;2.10;99.90;;;;;;5030647;28;20557;-47
2022/04/03 06:48:58;;;;;;;6.83;5.30;;;2.10;99.90;;;;;;5030752;28;20217;-47
2022/04/03 06:51:23;;;;;;;9.43;5.43;;;2.20;99.90;;;;;;5024169;28;20449;-48
2022/04/03 06:53:49;;;;;;;9.30;5.47;;;2.20;99.90;;;;;;5030922;28;20198;-48
2022/04/03 06:56:15;;;;;;;9.00;5.27;;;2.30;99.90;;;;;;5029499;28;20187;-48
2022/04/03 06:58:40;;;;;;;8.90;5.70;;;2.20;99.90;;;;;;5030867;28;20472;-48
2022/04/03 07:01:06;;;;;;;10.13;5.83;;;2.20;99.90;;;;;;5019279;28;20310;-47
2022/04/03 07:03:35;;;;;;;15.20;5.73;;;2.30;99.90;;;;;;5011594;28;20184;-48
2022/04/03 07:06:01;;;;;;;14.53;5.60;;;2.40;99.90;;;;;;5010550;28;20187;-48
2022/04/03 07:08:28;;;;;;;9.80;6.53;;;2.60;99.90;;;;;;5012020;28;20561;-48
2022/04/03 07:10:54;;;;;;;6.90;5.67;;;2.70;99.90;;;;;;5011223;28;20402;-47
2022/04/03 07:13:20;;;;;;;9.10;4.80;;;2.80;99.90;;;;;;4993447;28;20438;-48
2022/04/03 07:15:45;;;;;;;10.17;5.60;;;3.00;99.90;;;;;;5011524;28;20850;-48
2022/04/03 07:18:11;;;;;;;8.83;5.00;;;3.30;99.90;;;;;;5010919;28;20712;-47
2022/04/03 07:20:36;;;;;;;10.87;5.10;;;3.60;99.90;;;;;;5011023;28;20211;-48
2022/04/03 07:23:02;;;;;;;6.43;4.90;;;3.70;99.90;;;;;;5011091;28;20198;-47
2022/04/03 07:25:28;;;;;;;6.93;5.40;;;3.80;99.90;;;;;;5010757;28;20218;-47
2022/04/03 07:27:53;;;;;;;8.53;5.13;;;3.90;99.90;;;;;;5010843;28;20267;-48
2022/04/03 07:30:19;;;;;;;8.30;5.00;;;4.10;99.90;;;;;;5010598;28;20219;-48
2022/04/03 07:32:44;;;;;;;10.07;5.30;;;4.20;99.90;;;;;;5010046;28;20713;-48
2022/04/03 07:35:11;;;;;;;9.80;5.33;;;4.20;99.90;;;;;;5010699;28;20199;-48
2022/04/03 07:37:37;;;;;;;7.57;5.20;;;4.20;99.90;;;;;;5010207;28;20534;-48
2022/04/03 07:40:04;;;;;;;7.63;5.53;;;4.10;99.90;;;;;;5010752;28;20510;-48
2022/04/03 07:42:30;;;;;;;5.43;4.80;;;4.10;99.90;;;;;;5010166;28;20423;-47
2022/04/03 07:44:55;;;;;;;7.87;5.37;;;4.10;99.90;;;;;;5010942;28;20442;-48
2022/04/03 07:47:21;;;;;;;8.33;5.03;;;4.10;99.90;;;;;;5010444;28;20959;-48
2022/04/03 07:49:46;;;;;;;6.30;5.40;;;4.10;99.90;;;;;;5009772;28;20212;-48
2022/04/03 07:52:12;;;;;;;9.57;5.43;;;4.10;99.90;;;;;;5010404;28;20184;-48
2022/04/03 07:54:38;;;;;;;4.67;3.70;;;4.20;99.90;;;;;;5010407;28;20576;-48
2022/04/03 07:57:06;;;;;;;5.20;4.20;;;4.30;99.90;;;;;;5010151;28;20179;-48
2022/04/03 07:59:32;;;;;;;4.63;4.13;;;4.40;99.90;;;;;;5013511;28;20470;-51
2022/04/03 08:01:57;;;;;;;6.07;4.07;;;4.60;99.90;;;;;;5029877;28;20440;-51
2022/04/03 08:04:23;;;;;;;3.97;3.57;;;4.50;99.90;;;;;;5029463;28;20437;-51
2022/04/03 08:06:49;;;;;;;5.13;3.60;;;4.60;99.90;;;;;;5030069;28;20179;-52
2022/04/03 08:09:14;;;;;;;5.97;3.60;;;4.60;99.90;;;;;;5029853;28;20286;-51
2022/04/03 08:11:42;;;;;;;5.87;3.30;;;4.50;99.90;;;;;;5029970;28;20167;-50
2022/04/03 08:14:07;;;;;;;6.60;3.77;;;4.40;99.90;;;;;;5022391;28;20308;-51
2022/04/03 08:16:33;;;;;;;4.07;3.33;;;4.50;99.90;;;;;;5030197;28;20426;-50
2022/04/03 08:19:00;;;;;;;4.70;3.07;;;5.40;99.90;;;;;;5029816;28;20222;-55
2022/04/03 08:21:26;;;;;;;2.90;2.60;;;6.30;99.90;;;;;;5029726;28;20187;-51
2022/04/03 08:23:51;;;;;;;4.43;3.33;;;6.50;99.90;;;;;;5029910;28;20435;-51
2022/04/03 08:26:19;;;;;;;4.73;2.50;;;6.30;99.90;;;;;;5029873;28;20187;-51
2022/04/03 08:28:44;;;;;;;6.57;3.10;;;6.40;99.90;;;;;;5029736;28;20611;-51
2022/04/03 08:31:10;;;;;;;7.33;3.17;;;6.40;99.90;;;;;;5029695;28;20457;-52
2022/04/03 08:33:35;;;;;;;9.77;4.13;;;6.10;99.90;;;;;;5026277;28;20171;-51
2022/04/03 08:36:03;;;;;;;6.47;3.00;;;5.90;99.90;;;;;;5021596;28;20249;-51
2022/04/03 08:38:28;;;;;;;3.40;3.10;;;5.50;99.90;;;;;;5018810;28;20183;-50
2022/04/03 08:40:54;;;;;;;5.03;3.30;;;5.20;99.90;;;;;;5029814;28;20430;-48
2022/04/03 08:43:22;;;;;;;5.10;3.53;;;4.90;99.90;;;;;;5011764;28;20237;-48
2022/04/03 08:45:48;;;;;;;4.13;3.73;;;5.00;99.90;;;;;;5011589;28;20181;-48
2022/04/03 08:48:19;;;;;;;6.40;3.83;;;5.20;99.90;;;;;;5011627;28;20457;-47
2022/04/03 08:50:48;;;;;;;5.50;3.73;;;5.20;99.90;;;;;;5025317;28;20973;-48
2022/04/03 08:53:13;;;;;;;4.60;3.87;;;5.30;99.90;;;;;;5022565;28;20449;-47
2022/04/03 08:55:39;;;;;;;7.30;4.20;;;5.60;99.90;;;;;;5002026;28;20532;-55
2022/04/03 08:58:04;;;;;;;7.10;3.43;;;6.30;99.90;;;;;;5023945;28;20965;-47
2022/04/03 09:00:34;;;;;;;6.60;3.47;;;6.50;99.90;;;;;;5029452;28;20258;-47
2022/04/03 09:03:00;;;;;;;7.83;3.20;;;6.40;99.90;;;;;;5028785;28;20546;-47
2022/04/03 09:05:38;;;;;;;7.00;3.90;;;6.20;99.90;;;;;;5021100;28;20446;-47
2022/04/03 09:08:05;;;;;;;10.00;3.70;;;5.90;99.90;;;;;;4993591;28;20446;-47
2022/04/03 09:10:31;;;;;;;6.20;3.60;;;5.70;99.90;;;;;;5027676;28;20457;-51
2022/04/03 09:12:57;;;;;;;5.03;3.30;;;5.60;99.90;;;;;;5023037;28;20442;-48
2022/04/03 09:15:24;;;;;;;3.73;3.23;;;5.90;99.90;;;;;;5026902;28;20460;-45
2022/04/03 09:17:58;;;;;;;10.03;3.33;;;6.60;99.90;;;;;;5028693;28;20429;-48
2022/04/03 09:20:25;;;;;;;4.13;3.10;;;7.80;99.90;;;;;;5031946;28;20429;-48
2022/04/03 09:22:58;;;;;;;3.77;2.60;;;8.90;99.90;;;;;;5030666;28;20465;-49
2022/04/03 09:25:27;;;;;;;4.20;2.77;;;9.20;99.90;;;;;;5028940;28;20434;-50
2022/04/03 09:27:55;;;;;;;7.10;3.23;;;9.30;99.90;;;;;;5026420;28;20445;-49
2022/04/03 09:30:24;;;;;;;6.60;3.50;;;8.90;99.90;;;;;;5029726;28;20540;-50
2022/04/03 09:32:52;;;;;;;4.90;3.00;;;8.60;99.90;;;;;;5031977;28;20484;-48
2022/04/03 09:35:20;;;;;;;5.80;3.07;;;8.30;99.90;;;;;;5025231;28;20472;-49
2022/04/03 09:38:10;;;;;;;9.33;2.57;;;8.20;99.90;;;;;;5035179;28;20521;-49
2022/04/03 09:40:50;;;;;;;7.17;3.87;;;8.60;99.90;;;;;;5030249;28;20433;-49
2022/04/03 09:43:16;;;;;;;4.27;2.97;;;9.10;99.90;;;;;;5025841;28;20783;-49
2022/04/03 09:45:53;;;;;;;7.00;2.97;;;9.00;99.90;;;;;;5031781;28;20433;-49
2022/04/03 09:48:25;;;;;;;3.33;2.00;;;9.00;99.90;;;;;;5032153;28;20214;-49
2022/04/03 09:50:59;;;;;;;3.27;2.17;;;9.20;99.90;;;;;;5030943;28;20509;-49
2022/04/03 09:53:29;;;;;;;4.87;2.60;;;9.60;99.90;;;;;;5024042;28;20521;-49
2022/04/03 09:55:55;;;;;;;2.93;2.23;;;9.50;99.90;;;;;;5030406;28;20508;-49
2022/04/03 09:58:22;;;;;;;3.37;2.60;;;9.20;99.90;;;;;;5014129;28;20950;-50
2022/04/03 10:00:47;;;;;;;5.77;2.13;;;8.90;99.90;;;;;;5030615;28;20478;-49
2022/04/03 10:03:14;;;;;;;7.00;2.20;;;8.60;99.90;;;;;;5030856;28;21026;-49
2022/04/03 10:05:40;;;;;;;6.30;1.90;;;8.70;99.90;;;;;;5031031;28;20217;-49
2022/04/03 10:08:06;;;;;;;4.30;2.23;;;9.10;99.90;;;;;;5031374;28;20910;-49
2022/04/03 10:10:35;;;;;;;4.13;1.90;;;9.40;99.90;;;;;;5031295;28;20481;-48
2022/04/03 10:13:01;;;;;;;4.87;1.93;;;9.60;99.90;;;;;;5030441;28;20943;-48
2022/04/03 10:15:28;;;;;;;2.70;1.63;;;9.70;99.90;;;;;;5031166;28;20441;-49
2022/04/03 10:17:54;;;;;;;2.43;1.60;;;9.50;99.90;;;;;;5030437;28;20440;-49
2022/04/03 10:20:25;;;;;;;5.73;2.00;;;9.10;99.90;;;;;;5030742;28;20462;-48
2022/04/03 10:22:55;;;;;;;7.63;2.10;;;8.70;99.90;;;;;;5029816;28;20430;-49
2022/04/03 10:25:27;;;;;;;3.63;1.77;;;8.20;99.90;;;;;;5030299;28;20434;-49
2022/04/03 10:28:01;;;;;;;3.67;2.10;;;7.70;99.90;;;;;;5030843;28;20830;-49
2022/04/03 10:30:37;;;;;;;7.40;1.87;;;7.60;99.90;;;;;;5030158;28;20492;-49
2022/04/03 10:33:03;;;;;;;3.33;1.50;;;7.50;99.90;;;;;;5034141;28;20433;-49
2022/04/03 10:35:28;;;;;;;2.03;1.50;;;7.40;99.90;;;;;;5030416;28;20914;-49
2022/04/03 10:38:03;;;;;;;4.63;1.73;;;7.30;99.90;;;;;;5026385;28;20434;-49
2022/04/03 10:40:33;;;;;;;4.87;1.63;;;7.30;99.90;;;;;;5024024;28;20203;-49
2022/04/03 10:43:05;;;;;;;6.33;1.50;;;7.40;99.90;;;;;;5029968;28;20771;-49
2022/04/03 10:45:36;;;;;;;1.77;1.37;;;7.40;99.90;;;;;;5030444;28;20410;-48
